createdAt,value
2018-11-28T00:00:09.765Z,13.90
2018-11-28T00:02:37.899Z,13.35
2018-11-28T00:05:09.911Z,17.27
2018-11-28T00:07:38.180Z,15.53
2018-11-28T00:10:09.319Z,16.20
2018-11-28T00:12:37.745Z,13.85
2018-11-28T00:15:06.896Z,14.00
2018-11-28T00:17:35.127Z,14.55
2018-11-28T00:20:03.131Z,13.00
2018-11-28T00:22:31.145Z,13.00
2018-11-28T00:24:59.195Z,14.50
2018-11-28T00:27:27.209Z,15.03
2018-11-28T00:29:55.432Z,17.07
2018-11-28T00:32:23.596Z,13.22
2018-11-28T00:34:51.600Z,11.48
2018-11-28T00:37:19.612Z,12.43
2018-11-28T00:39:47.712Z,12.13
2018-11-28T00:42:15.765Z,10.88
2018-11-28T00:44:43.817Z,11.03
2018-11-28T00:47:11.824Z,15.00
2018-11-28T00:49:39.864Z,12.78
2018-11-28T00:52:07.924Z,11.53
2018-11-28T00:54:35.987Z,15.05
2018-11-28T00:57:04.044Z,14.45
2018-11-28T00:59:32.105Z,12.33
2018-11-28T01:02:00.151Z,15.72
2018-11-28T01:04:28.160Z,13.50
2018-11-28T01:07:00.479Z,12.75
2018-11-28T01:09:28.499Z,14.25
2018-11-28T01:11:56.512Z,15.58
2018-11-28T01:14:24.560Z,12.03
2018-11-28T01:16:52.564Z,10.78
2018-11-28T01:19:20.612Z,12.20
2018-11-28T01:21:48.623Z,13.72
2018-11-28T01:24:16.628Z,12.63
2018-11-28T01:26:44.964Z,12.10
2018-11-28T01:29:12.968Z,12.93
2018-11-28T01:31:40.963Z,12.63
2018-11-28T01:34:09.080Z,10.80
2018-11-28T01:36:37.089Z,13.25
2018-11-28T01:39:06.157Z,18.05
2018-11-28T01:41:34.168Z,12.05
2018-11-28T01:44:02.256Z,13.62
2018-11-28T01:46:30.260Z,19.98
2018-11-28T01:48:58.276Z,12.73
2018-11-28T01:51:26.343Z,18.45
2018-11-28T01:53:54.348Z,13.95
2018-11-28T01:56:22.419Z,11.70
2018-11-28T01:58:50.511Z,10.70
2018-11-28T02:01:18.543Z,19.95
2018-11-28T02:03:46.557Z,15.32
2018-11-28T02:06:14.928Z,14.60
2018-11-28T02:08:42.927Z,11.97
2018-11-28T02:11:10.944Z,16.93
2018-11-28T02:13:39.007Z,14.47
2018-11-28T02:16:07.016Z,14.43
2018-11-28T02:18:35.012Z,11.85
2018-11-28T02:21:03.356Z,10.85
2018-11-28T02:23:31.351Z,14.70
2018-11-28T02:25:59.352Z,10.55
2018-11-28T02:28:27.413Z,15.85
2018-11-28T02:30:55.435Z,11.35
2018-11-28T02:33:23.507Z,15.58
2018-11-28T02:35:51.704Z,15.35
2018-11-28T02:38:19.756Z,13.78
2018-11-28T02:40:47.832Z,13.00
2018-11-28T02:43:15.890Z,13.20
2018-11-28T02:45:48.476Z,10.70
2018-11-28T02:48:16.658Z,11.40
2018-11-28T02:50:44.660Z,13.10
2018-11-28T02:53:12.696Z,14.70
2018-11-28T02:55:40.869Z,10.88
2018-11-28T02:58:08.884Z,15.43
2018-11-28T03:00:36.908Z,13.45
2018-11-28T03:03:05.024Z,11.10
2018-11-28T03:05:33.032Z,11.73
2018-11-28T03:08:01.036Z,14.33
2018-11-28T03:10:29.088Z,13.08
2018-11-28T03:12:57.314Z,11.03
2018-11-28T03:15:33.228Z,14.50
2018-11-28T03:18:02.007Z,11.80
2018-11-28T03:20:30.085Z,14.78
2018-11-28T03:22:58.088Z,13.50
2018-11-28T03:25:26.219Z,12.28
2018-11-28T03:27:54.276Z,15.78
2018-11-28T03:30:22.293Z,16.97
2018-11-28T03:32:50.308Z,11.22
2018-11-28T03:35:18.375Z,15.40
2018-11-28T03:37:46.421Z,11.40
2018-11-28T03:40:14.523Z,14.33
2018-11-28T03:42:42.626Z,15.95
2018-11-28T03:45:13.664Z,15.75
2018-11-28T03:47:42.300Z,13.35
2018-11-28T03:50:12.272Z,11.90
2018-11-28T03:52:40.341Z,14.98
2018-11-28T03:55:09.892Z,11.12
2018-11-28T03:57:37.894Z,13.72
2018-11-28T04:00:09.678Z,12.93
2018-11-28T04:02:37.764Z,10.45
2018-11-28T04:05:06.122Z,10.32
2018-11-28T04:07:34.140Z,12.35
2018-11-28T04:10:02.202Z,12.90
2018-11-28T04:12:30.216Z,12.03
2018-11-28T04:14:58.225Z,13.68
2018-11-28T04:17:26.306Z,11.20
2018-11-28T04:19:54.344Z,8.30
2018-11-28T04:22:22.424Z,13.83
2018-11-28T04:24:50.431Z,10.08
2018-11-28T04:27:18.584Z,11.83
2018-11-28T04:29:46.624Z,14.90
2018-11-28T04:32:14.768Z,9.68
2018-11-28T04:34:42.824Z,10.55
2018-11-28T04:37:10.832Z,15.38
2018-11-28T04:39:38.844Z,29.25
2018-11-28T04:42:06.899Z,19.75
2018-11-28T04:44:34.936Z,15.05
2018-11-28T04:47:03.057Z,23.40
2018-11-28T04:49:31.423Z,24.82
2018-11-28T04:51:59.448Z,20.75
2018-11-28T04:54:27.471Z,53.68
2018-11-28T04:56:55.668Z,41.48
2018-11-28T04:59:23.691Z,63.02
2018-11-28T05:01:51.700Z,38.63
2018-11-28T05:04:19.836Z,43.05
2018-11-28T05:07:51.695Z,38.15
2018-11-28T05:10:25.355Z,41.60
2018-11-28T05:12:53.852Z,41.23
2018-11-28T05:15:24.783Z,48.92
2018-11-28T05:17:53.645Z,36.33
2018-11-28T05:20:29.449Z,49.93
2018-11-28T05:22:57.496Z,57.85
2018-11-28T05:25:26.431Z,58.55
2018-11-28T05:27:55.337Z,62.15
2018-11-28T05:30:24.375Z,47.67
2018-11-28T05:32:52.452Z,46.33
2018-11-28T05:35:30.629Z,38.02
2018-11-28T05:37:58.637Z,43.28
2018-11-28T05:40:27.362Z,53.63
2018-11-28T05:42:55.507Z,41.08
2018-11-28T05:45:23.602Z,64.70
2018-11-28T05:47:51.649Z,43.20
2018-11-28T05:50:21.357Z,45.28
2018-11-28T05:52:49.473Z,41.30
2018-11-28T05:55:18.461Z,29.85
2018-11-28T05:57:46.528Z,36.38
2018-11-28T06:00:24.944Z,31.40
2018-11-28T06:02:53.041Z,35.95
2018-11-28T06:05:21.056Z,33.28
2018-11-28T06:07:49.063Z,31.60
2018-11-28T06:10:17.220Z,36.70
2018-11-28T06:12:45.219Z,31.87
2018-11-28T06:15:13.570Z,73.57
2018-11-28T06:17:41.624Z,61.05
2018-11-28T06:20:11.963Z,50.40
2018-11-28T06:22:39.988Z,48.87
2018-11-28T06:25:15.896Z,43.15
2018-11-28T06:27:37.899Z,52.20
2018-11-28T06:30:08.355Z,51.53
2018-11-28T06:32:36.439Z,50.08
2018-11-28T06:35:05.925Z,45.67
2018-11-28T06:37:33.933Z,70.30
2018-11-28T06:40:01.975Z,48.17
2018-11-28T06:42:30.241Z,60.65
2018-11-28T06:44:58.312Z,57.88
2018-11-28T06:47:26.381Z,60.17
2018-11-28T06:49:54.448Z,47.60
2018-11-28T06:52:22.462Z,39.73
2018-11-28T06:54:50.544Z,50.88
2018-11-28T06:57:18.672Z,34.50
2018-11-28T06:59:46.677Z,54.85
2018-11-28T07:02:14.694Z,58.90
2018-11-28T07:04:42.752Z,36.60
2018-11-28T07:07:10.760Z,51.30
2018-11-28T07:09:38.777Z,51.65
2018-11-28T07:12:07.096Z,44.65
2018-11-28T07:14:35.168Z,44.70
2018-11-28T07:17:03.171Z,34.13
2018-11-28T07:19:31.222Z,43.13
2018-11-28T07:21:59.309Z,59.35
2018-11-28T07:24:27.351Z,36.33
2018-11-28T07:26:55.356Z,31.42
2018-11-28T07:29:23.796Z,32.73
2018-11-28T07:31:51.867Z,31.23
2018-11-28T07:34:19.880Z,29.75
2018-11-28T07:36:48.015Z,29.05
2018-11-28T07:39:16.064Z,31.02
2018-11-28T07:41:44.134Z,26.90
2018-11-28T07:44:12.192Z,29.48
2018-11-28T07:46:40.208Z,33.40
2018-11-28T07:49:08.222Z,31.00
2018-11-28T07:51:36.604Z,29.65
2018-11-28T07:54:05.492Z,28.07
2018-11-28T07:56:33.498Z,36.15
2018-11-28T07:59:01.546Z,31.40
2018-11-28T08:01:29.756Z,32.93
2018-11-28T08:03:57.759Z,29.60
2018-11-28T08:06:25.784Z,30.90
2018-11-28T08:08:57.875Z,35.90
2018-11-28T08:11:26.137Z,30.95
2018-11-28T08:13:54.324Z,28.85
2018-11-28T08:16:22.380Z,39.70
2018-11-28T08:18:50.393Z,29.10
2018-11-28T08:21:18.405Z,35.60
2018-11-28T08:23:46.465Z,26.97
2018-11-28T08:26:14.569Z,32.70
2018-11-28T08:28:42.577Z,26.80
2018-11-28T08:31:10.636Z,29.98
2018-11-28T08:33:38.759Z,29.70
2018-11-28T08:36:06.847Z,30.65
2018-11-28T08:38:34.912Z,31.62
2018-11-28T08:41:02.938Z,41.13
2018-11-28T08:43:30.944Z,34.20
2018-11-28T08:45:59.035Z,36.63
2018-11-28T08:48:27.047Z,38.00
2018-11-28T08:50:55.157Z,31.17
2018-11-28T08:53:23.227Z,33.18
2018-11-28T08:55:51.504Z,37.15
2018-11-28T08:58:19.600Z,35.63
2018-11-28T09:00:47.771Z,32.85
2018-11-28T09:03:15.780Z,36.63
2018-11-28T09:05:43.796Z,36.03
2018-11-28T09:08:11.863Z,33.10
2018-11-28T09:10:39.877Z,38.35
2018-11-28T09:13:07.896Z,29.23
2018-11-28T09:15:36.019Z,42.62
2018-11-28T09:18:04.068Z,38.08
2018-11-28T09:20:32.073Z,28.65
2018-11-28T09:23:00.316Z,33.18
2018-11-28T09:25:28.327Z,33.48
2018-11-28T09:27:57.689Z,31.12
2018-11-28T09:30:25.860Z,33.35
2018-11-28T09:32:53.931Z,36.68
2018-11-28T09:35:21.967Z,37.53
2018-11-28T09:37:50.074Z,37.75
2018-11-28T09:40:21.319Z,28.32
2018-11-28T09:42:50.086Z,34.15
2018-11-28T09:45:18.792Z,33.70
2018-11-28T09:47:46.835Z,35.03
2018-11-28T09:50:17.749Z,28.40
2018-11-28T09:52:45.827Z,28.45
2018-11-28T09:55:18.758Z,30.17
2018-11-28T09:57:46.896Z,27.13
2018-11-28T10:00:17.280Z,28.57
2018-11-28T10:02:45.684Z,30.32
2018-11-28T10:05:16.891Z,25.23
2018-11-28T10:07:46.493Z,32.05
2018-11-28T10:10:14.567Z,32.48
2018-11-28T10:12:42.611Z,34.63
2018-11-28T10:15:12.656Z,27.93
2018-11-28T10:17:40.766Z,21.65
2018-11-28T10:20:10.128Z,28.75
2018-11-28T10:22:38.197Z,28.35
2018-11-28T10:25:07.297Z,28.50
2018-11-28T10:27:35.669Z,27.42
2018-11-28T10:30:03.740Z,25.85
2018-11-28T10:32:31.849Z,23.12
2018-11-28T10:34:59.896Z,31.00
2018-11-28T10:37:27.968Z,20.70
2018-11-28T10:39:56.029Z,20.62
2018-11-28T10:42:24.100Z,19.23
2018-11-28T10:44:52.136Z,13.70
2018-11-28T10:47:20.154Z,13.05
2018-11-28T10:49:48.164Z,13.50
2018-11-28T10:52:16.463Z,8.40
2018-11-28T10:54:44.484Z,10.53
2018-11-28T10:57:12.488Z,6.70
2018-11-28T10:59:40.532Z,11.70
2018-11-28T11:03:15.844Z,12.53
2018-11-28T11:05:49.408Z,14.40
2018-11-28T11:08:22.895Z,12.40
2018-11-28T11:11:00.434Z,13.40
2018-11-28T11:13:34.654Z,12.05
2018-11-28T11:16:02.828Z,12.70
2018-11-28T11:18:30.918Z,15.83
2018-11-28T11:20:58.960Z,10.78
2018-11-28T11:23:27.149Z,11.90
2018-11-28T11:25:55.258Z,13.28
2018-11-28T11:28:23.280Z,11.60
2018-11-28T11:30:51.353Z,8.73
2018-11-28T11:33:19.411Z,12.40
2018-11-28T11:35:47.608Z,10.28
2018-11-28T11:38:15.673Z,9.10
2018-11-28T11:40:43.686Z,11.90
2018-11-28T11:43:11.895Z,9.05
2018-11-28T11:45:39.997Z,9.00
2018-11-28T11:48:08.073Z,10.03
2018-11-28T11:50:36.131Z,9.55
2018-11-28T11:53:04.316Z,10.27
2018-11-28T11:55:32.315Z,7.25
2018-11-28T11:58:00.369Z,7.28
2018-11-28T12:00:28.420Z,8.60
2018-11-28T12:03:00.085Z,6.80
2018-11-28T12:05:28.461Z,8.70
2018-11-28T12:07:56.528Z,11.35
2018-11-28T12:10:24.595Z,7.90
2018-11-28T12:12:52.687Z,9.18
2018-11-28T12:15:20.687Z,8.27
2018-11-28T12:17:49.444Z,12.20
2018-11-28T12:20:27.182Z,11.97
2018-11-28T12:22:55.184Z,8.70
2018-11-28T12:25:23.228Z,10.20
2018-11-28T12:27:51.390Z,8.98
2018-11-28T12:30:19.464Z,12.10
2018-11-28T12:32:47.791Z,16.15
2018-11-28T12:35:17.109Z,10.37
2018-11-28T12:37:45.112Z,8.78
2018-11-28T12:40:14.205Z,10.90
2018-11-28T12:42:43.508Z,7.80
2018-11-28T12:45:13.579Z,11.97
2018-11-28T12:47:42.064Z,12.40
2018-11-28T12:50:19.244Z,10.55
2018-11-28T12:52:47.248Z,9.97
2018-11-28T12:55:15.490Z,15.00
2018-11-28T12:57:43.531Z,11.40
2018-11-28T13:00:13.986Z,11.40
2018-11-28T13:02:42.127Z,13.40
2018-11-28T13:05:11.776Z,12.82
2018-11-28T13:07:39.943Z,9.77
2018-11-28T13:10:11.088Z,8.97
2018-11-28T13:12:39.273Z,9.43
2018-11-28T13:15:10.559Z,12.07
2018-11-28T13:17:38.693Z,10.70
2018-11-28T13:20:08.559Z,11.90
2018-11-28T13:22:36.589Z,11.20
2018-11-28T13:25:05.258Z,13.03
2018-11-28T13:27:33.312Z,14.18
2018-11-28T13:30:01.391Z,8.90
2018-11-28T13:32:29.400Z,12.25
2018-11-28T13:34:57.444Z,13.73
2018-11-28T13:37:25.450Z,12.47
2018-11-28T13:39:53.457Z,12.80
2018-11-28T13:42:21.499Z,12.30
2018-11-28T13:44:49.508Z,11.30
2018-11-28T13:47:17.588Z,10.70
2018-11-28T13:49:45.963Z,11.13
2018-11-28T13:52:13.967Z,9.35
2018-11-28T13:55:37.002Z,9.10
2018-11-28T13:57:10.520Z,10.95
2018-11-28T13:59:38.211Z,13.78
2018-11-28T14:02:06.231Z,14.20
2018-11-28T14:04:34.496Z,13.38
2018-11-28T14:07:02.502Z,12.93
2018-11-28T14:09:30.508Z,12.25
2018-11-28T14:11:58.564Z,12.60
2018-11-28T14:14:26.572Z,15.77
2018-11-28T14:16:54.581Z,14.25
2018-11-28T14:19:22.824Z,12.93
2018-11-28T14:21:50.828Z,12.35
2018-11-28T14:24:18.864Z,12.10
2018-11-28T14:26:47.037Z,12.50
2018-11-28T14:29:15.077Z,15.60
2018-11-28T14:31:43.089Z,17.48
2018-11-28T14:34:11.252Z,10.68
2018-11-28T14:36:39.261Z,12.73
2018-11-28T14:39:08.335Z,12.85
2018-11-28T14:41:36.548Z,11.10
2018-11-28T14:44:04.668Z,13.85
2018-11-28T14:46:32.825Z,10.70
2018-11-28T14:49:00.824Z,7.33
2018-11-28T14:51:35.220Z,11.70
2018-11-28T14:54:03.249Z,14.20
2018-11-28T14:56:31.267Z,10.13
2018-11-28T14:58:59.312Z,10.85
2018-11-28T15:01:27.408Z,7.83
2018-11-28T15:03:55.737Z,8.78
2018-11-28T15:06:27.291Z,13.78
2018-11-28T15:09:01.099Z,12.50
2018-11-28T15:11:29.160Z,7.80
2018-11-28T15:13:59.201Z,8.90
2018-11-28T15:16:27.316Z,7.58
2018-11-28T15:18:55.379Z,10.08
2018-11-28T15:21:23.388Z,7.80
2018-11-28T15:23:51.404Z,13.05
2018-11-28T15:26:19.460Z,9.33
2018-11-28T15:28:47.576Z,9.88
2018-11-28T15:31:15.585Z,12.75
2018-11-28T15:33:43.711Z,11.45
2018-11-28T15:36:11.715Z,8.28
2018-11-28T15:38:39.980Z,11.05
2018-11-28T15:41:08.043Z,7.83
2018-11-28T15:43:36.105Z,8.05
2018-11-28T15:46:04.508Z,15.43
2018-11-28T15:48:33.678Z,11.90
2018-11-28T15:51:02.720Z,12.50
2018-11-28T15:53:30.808Z,11.60
2018-11-28T15:55:58.887Z,11.28
2018-11-28T15:58:26.959Z,10.13
2018-11-28T16:00:55.074Z,12.00
2018-11-28T16:03:24.780Z,10.20
2018-11-28T16:05:52.892Z,9.93
2018-11-28T16:08:20.896Z,12.70
2018-11-28T16:10:48.919Z,7.03
2018-11-28T16:13:18.155Z,10.35
2018-11-28T16:15:55.060Z,13.50
2018-11-28T16:18:23.184Z,15.03
2018-11-28T16:20:54.533Z,10.48
2018-11-28T16:23:22.541Z,13.28
2018-11-28T16:25:50.592Z,10.90
2018-11-28T16:28:18.596Z,13.22
2018-11-28T16:30:46.645Z,19.27
2018-11-28T16:33:14.756Z,12.58
2018-11-28T16:35:42.760Z,15.72
2018-11-28T16:38:10.844Z,16.48
2018-11-28T16:40:38.860Z,13.32
2018-11-28T16:43:06.932Z,17.05
2018-11-28T16:45:35.098Z,21.25
2018-11-28T16:48:03.439Z,21.65
2018-11-28T16:50:31.521Z,21.73
2018-11-28T16:52:59.537Z,23.52
2018-11-28T16:55:27.656Z,21.00
2018-11-28T16:57:55.832Z,24.92
2018-11-28T17:00:28.256Z,20.95
2018-11-28T17:02:56.588Z,20.77
2018-11-28T17:05:24.616Z,25.60
2018-11-28T17:07:53.188Z,27.98
2018-11-28T17:10:23.473Z,22.87
2018-11-28T17:12:51.988Z,22.87
2018-11-28T17:15:20.371Z,20.88
2018-11-28T17:17:48.492Z,33.00
2018-11-28T17:20:20.728Z,26.48
2018-11-28T17:22:49.671Z,27.73
2018-11-28T17:25:20.060Z,25.37
2018-11-28T17:27:48.152Z,27.25
2018-11-28T17:30:19.000Z,31.60
2018-11-28T17:32:46.656Z,37.25
2018-11-28T17:35:14.693Z,30.62
2018-11-28T17:37:42.793Z,33.63
2018-11-28T17:40:13.060Z,31.35
2018-11-28T17:42:41.400Z,41.58
2018-11-28T17:45:10.687Z,37.20
2018-11-28T17:47:38.980Z,38.05
2018-11-28T17:50:10.960Z,37.73
2018-11-28T17:52:39.115Z,42.73
2018-11-28T17:55:09.683Z,45.88
2018-11-28T17:57:37.831Z,50.73
2018-11-28T18:00:09.936Z,35.85
2018-11-28T18:02:37.943Z,52.35
2018-11-28T18:05:06.644Z,39.73
2018-11-28T18:07:34.809Z,45.03
2018-11-28T18:10:02.860Z,62.25
2018-11-28T18:12:30.870Z,60.50
2018-11-28T18:14:59.015Z,55.08
2018-11-28T18:17:27.024Z,57.25
2018-11-28T18:19:55.040Z,54.85
2018-11-28T18:22:23.161Z,60.40
2018-11-28T18:24:51.307Z,59.88
2018-11-28T18:27:19.383Z,58.35
2018-11-28T18:29:47.699Z,58.45
2018-11-28T18:32:15.571Z,56.02
2018-11-28T18:34:43.623Z,60.00
2018-11-28T18:37:11.676Z,54.27
2018-11-28T18:39:39.680Z,65.47
2018-11-28T18:42:07.808Z,59.67
2018-11-28T18:44:35.981Z,67.95
2018-11-28T18:47:04.449Z,62.88
2018-11-28T18:49:32.467Z,72.08
2018-11-28T18:52:00.608Z,83.35
2018-11-28T18:54:28.612Z,67.85
2018-11-28T18:56:56.651Z,70.78
2018-11-28T18:59:24.716Z,74.55
2018-11-28T19:01:52.796Z,71.72
2018-11-28T19:04:20.803Z,77.53
2018-11-28T19:06:48.868Z,94.47
2018-11-28T19:09:22.328Z,84.60
2018-11-28T19:11:50.384Z,78.57
2018-11-28T19:14:18.387Z,91.10
2018-11-28T19:16:46.544Z,79.10
2018-11-28T19:19:14.616Z,75.12
2018-11-28T19:21:42.792Z,96.45
2018-11-28T19:24:10.968Z,90.20
2018-11-28T19:26:39.036Z,90.92
2018-11-28T19:29:07.112Z,84.22
2018-11-28T19:31:35.160Z,101.95
2018-11-28T19:34:03.251Z,94.67
2018-11-28T19:36:31.320Z,91.45
2018-11-28T19:38:59.333Z,106.03
2018-11-28T19:41:27.368Z,101.80
2018-11-28T19:43:55.428Z,99.30
2018-11-28T19:46:23.520Z,109.22
2018-11-28T19:48:51.532Z,92.70
2018-11-28T19:51:19.596Z,90.53
2018-11-28T19:53:47.687Z,103.87
2018-11-28T19:56:15.791Z,94.92
2018-11-28T19:58:44.168Z,98.80
2018-11-28T20:01:12.187Z,96.57
2018-11-28T20:03:40.204Z,104.23
2018-11-28T20:06:08.271Z,108.25
2018-11-28T20:08:36.294Z,103.22
2018-11-28T20:11:04.307Z,108.03
2018-11-28T20:13:32.384Z,105.67
2018-11-28T20:16:00.547Z,94.30
2018-11-28T20:18:28.552Z,96.17
2018-11-28T20:20:56.575Z,104.65
2018-11-28T20:23:24.784Z,118.72
2018-11-28T20:25:52.796Z,92.50
2018-11-28T20:28:20.809Z,96.17
2018-11-28T20:30:49.623Z,98.60
2018-11-28T20:33:17.800Z,99.80
2018-11-28T20:35:47.192Z,93.10
2018-11-28T20:38:27.893Z,101.62
2018-11-28T20:40:55.908Z,93.55
2018-11-28T20:43:23.915Z,95.72
2018-11-28T20:45:51.988Z,104.10
2018-11-28T20:48:19.992Z,97.72
2018-11-28T20:50:48.424Z,95.72
2018-11-28T20:53:18.505Z,96.45
2018-11-28T20:55:46.879Z,76.37
2018-11-28T20:58:14.904Z,97.00
2018-11-28T21:00:43.060Z,87.72
2018-11-28T21:03:11.112Z,92.75
2018-11-28T21:05:39.208Z,81.10
2018-11-28T21:08:08.711Z,75.45
2018-11-28T21:10:38.755Z,90.77
2018-11-28T21:13:09.361Z,81.95
2018-11-28T21:15:37.397Z,84.40
2018-11-28T21:18:06.420Z,94.28
2018-11-28T21:20:34.577Z,88.72
2018-11-28T21:23:04.524Z,86.37
2018-11-28T21:25:32.589Z,96.08
2018-11-28T21:28:01.160Z,73.95
2018-11-28T21:30:29.167Z,83.35
2018-11-28T21:32:57.184Z,88.70
2018-11-28T21:35:27.655Z,97.10
2018-11-28T21:37:55.707Z,93.12
2018-11-28T21:40:23.911Z,86.22
2018-11-28T21:42:52.058Z,96.53
2018-11-28T21:45:20.855Z,88.70
2018-11-28T21:47:48.955Z,83.22
2018-11-28T21:50:17.807Z,87.78
2018-11-28T21:52:45.872Z,89.58
2018-11-28T21:55:14.923Z,88.27
2018-11-28T21:57:43.039Z,86.15
2018-11-28T22:00:12.144Z,83.40
2018-11-28T22:02:40.235Z,79.97
2018-11-28T22:05:09.803Z,89.62
2018-11-28T22:07:37.826Z,83.22
2018-11-28T22:10:10.619Z,81.57
2018-11-28T22:12:39.687Z,71.85
2018-11-28T22:15:10.136Z,78.50
2018-11-28T22:17:38.988Z,87.53
2018-11-28T22:20:11.058Z,82.47
2018-11-28T22:22:39.168Z,71.45
2018-11-28T22:25:15.210Z,70.40
2018-11-28T22:27:42.135Z,78.80
2018-11-28T22:30:11.787Z,82.10
2018-11-28T22:32:40.055Z,82.37
2018-11-28T22:35:08.453Z,73.07
2018-11-28T22:37:36.464Z,67.62
2018-11-28T22:40:08.095Z,74.85
2018-11-28T22:42:36.160Z,72.32
2018-11-28T22:45:05.132Z,85.32
2018-11-28T22:47:33.297Z,72.35
2018-11-28T22:50:01.310Z,77.53
2018-11-28T22:52:29.380Z,69.20
2018-11-28T22:54:57.393Z,57.78
2018-11-28T22:57:25.473Z,72.15
2018-11-28T22:59:53.535Z,74.85
2018-11-28T23:03:10.772Z,66.80
2018-11-28T23:05:47.023Z,72.45
2018-11-28T23:08:15.931Z,69.77
2018-11-28T23:10:44.007Z,64.05
2018-11-28T23:13:13.000Z,69.37
2018-11-28T23:15:41.005Z,73.90
2018-11-28T23:18:10.063Z,58.92
2018-11-28T23:20:38.132Z,63.83
2018-11-28T23:23:07.285Z,64.53
2018-11-28T23:25:35.413Z,68.10
2018-11-28T23:28:03.476Z,66.20
2018-11-28T23:30:31.485Z,70.45
2018-11-28T23:32:59.544Z,69.32
2018-11-28T23:35:27.552Z,79.67
2018-11-28T23:37:55.559Z,63.45
2018-11-28T23:40:24.796Z,67.55
2018-11-28T23:42:53.348Z,69.82
2018-11-28T23:45:21.531Z,69.47
2018-11-28T23:47:49.699Z,68.87
2018-11-28T23:50:21.242Z,69.55
2018-11-28T23:52:49.980Z,65.83
2018-11-28T23:55:19.021Z,74.87
2018-11-28T23:57:47.048Z,61.77
